»·PEaware :: WAT169 KMFR-KSEA

WAT169 :: KMFR-KSEA

FLIGHT INFORMATION

Flight Status: Arrived
Operator:
Walker Air Transport
More flights by this operator :: More flights under this callsign
Pilot: Marty P. (27464)
Aircraft: AIRBUS A321
(A321)
More flights by this aircraft type
Origin: KMFR Rogue Valley Intl-Medford
United States
Destination: KSEA Seattle-Tacoma Intl
United States
More flights between these airports :: More routes between these airports
Route: BRUTE7 MOURN BTG KRIEG HAWKZ7
File this flight plan on PilotEdge
Remarks:
Altitude:
(Current/Filed)
34,000ft
Speed:
(Current/Filed)
480kts
Departed: 09-Sep-21 09:12 PM
Arrived: 09-Sep-21 10:09 PM
Distance/Time
Traveled:
305nm/0:57
Distance/Time
To Go:
Arrived

Flight Plot

Page will automatically refresh every two minutes.

Flight plan parsing failed; only flown route is shown


Map Options




Map Legend


Flown Route
Filed Route
Departure Airport
Arrival Airport
Navaid (VOR, NDB)
Fix

Horizontal Profiles

Position Reports

Time Latitude Longitude Heading Altitude Ground
Speed
09-Sep-21 20:29 42.369122 -122.873583 248 1320ft 0kts
09-Sep-21 20:30 42.369122 -122.873583 248 1320ft 0kts
09-Sep-21 20:31 42.369122 -122.873583 248 1320ft 0kts
09-Sep-21 20:32 42.369122 -122.873583 248 1320ft 0kts
09-Sep-21 20:33 42.369122 -122.873583 248 1320ft 0kts
09-Sep-21 20:34 42.369122 -122.873583 248 1320ft 0kts
09-Sep-21 20:35 42.369122 -122.873583 248 1320ft 0kts
09-Sep-21 20:36 42.369122 -122.873583 248 1320ft 0kts
09-Sep-21 20:37 42.369122 -122.873583 248 1320ft 0kts
09-Sep-21 20:38 42.369122 -122.873583 248 1320ft 0kts
09-Sep-21 20:39 42.369122 -122.873583 248 1320ft 0kts
09-Sep-21 20:40 42.369122 -122.873583 248 1320ft 0kts
09-Sep-21 20:41 42.369122 -122.873583 248 1320ft 0kts
09-Sep-21 20:42 42.369122 -122.873583 248 1320ft 0kts
09-Sep-21 20:43 42.369122 -122.873583 248 1320ft 0kts
09-Sep-21 20:44 42.369122 -122.873583 248 1320ft 0kts
09-Sep-21 20:45 42.369122 -122.873583 248 1320ft 0kts
09-Sep-21 20:46 42.369156 -122.873351 276 1321ft 2kts
09-Sep-21 20:47 42.368847 -122.872851 343 1322ft 0kts
09-Sep-21 20:48 42.369345 -122.872824 69 1322ft 0kts
09-Sep-21 20:49 42.369345 -122.872823 69 1322ft 0kts
09-Sep-21 20:51 42.369345 -122.872823 69 1322ft 0kts
09-Sep-21 20:52 42.369345 -122.872823 69 1322ft 0kts
09-Sep-21 20:53 42.369345 -122.872823 69 1322ft 0kts
09-Sep-21 20:54 42.369345 -122.872823 69 1322ft 0kts
09-Sep-21 20:55 42.369345 -122.872823 69 1322ft 0kts
09-Sep-21 20:56 42.369345 -122.872823 69 1322ft 0kts
09-Sep-21 20:57 42.369345 -122.872823 69 1322ft 0kts
09-Sep-21 20:58 42.369345 -122.872823 69 1322ft 0kts
09-Sep-21 20:59 42.369345 -122.872823 69 1322ft 0kts
09-Sep-21 21:00 42.369345 -122.872823 69 1322ft 0kts
09-Sep-21 21:01 42.369345 -122.872823 69 1322ft 0kts
09-Sep-21 21:02 42.369345 -122.872823 69 1322ft 0kts
09-Sep-21 21:03 42.369345 -122.872823 69 1322ft 0kts
09-Sep-21 21:04 42.369345 -122.872823 69 1322ft 0kts
09-Sep-21 21:05 42.369345 -122.872823 69 1322ft 0kts
09-Sep-21 21:06 42.369345 -122.872823 69 1322ft 0kts
09-Sep-21 21:07 42.369345 -122.872823 69 1322ft 0kts
09-Sep-21 21:08 42.369346 -122.872814 81 1322ft 0kts
09-Sep-21 21:09 42.374390 -122.874595 339 1315ft 27kts
09-Sep-21 21:10 42.381568 -122.878342 338 1308ft 28kts
09-Sep-21 21:11 42.385876 -122.879035 145 1303ft 9kts
09-Sep-21 21:12 42.356639 -122.864481 174 2367ft 172kts
09-Sep-21 21:13 42.342300 -122.913603 321 3982ft 205kts
09-Sep-21 21:14 42.391030 -122.875651 68 5545ft 257kts
09-Sep-21 21:15 42.401749 -122.778914 82 8139ft 268kts
09-Sep-21 21:16 42.411993 -122.676410 85 10521ft 284kts
09-Sep-21 21:16 42.429324 -122.588769 44 12131ft 312kts
09-Sep-21 21:18 42.525717 -122.598721 334 13813ft 335kts
09-Sep-21 21:19 42.609632 -122.668969 320 14756ft 380kts
09-Sep-21 21:20 42.701883 -122.751249 321 16400ft 406kts
09-Sep-21 21:21 42.797991 -122.835885 321 18282ft 418kts
09-Sep-21 21:21 42.880354 -122.908688 321 19748ft 428kts
09-Sep-21 21:22 42.983030 -122.994764 336 21333ft 448kts
09-Sep-21 21:23 43.110320 -122.992106 5 22801ft 469kts
09-Sep-21 21:25 43.263030 -122.968371 4 24360ft 480kts
09-Sep-21 21:26 43.397335 -122.948723 4 25539ft 490kts
09-Sep-21 21:26 43.510811 -122.932171 4 26499ft 497kts
09-Sep-21 21:27 43.649405 -122.911861 4 27497ft 507kts
09-Sep-21 21:28 43.789953 -122.891095 4 28844ft 506kts
09-Sep-21 21:29 43.929565 -122.870377 4 30068ft 505kts
09-Sep-21 21:30 44.069720 -122.849453 3 31372ft 512kts
09-Sep-21 21:31 44.209723 -122.828512 2 33915ft 509kts
09-Sep-21 21:32 44.352898 -122.807100 2 33964ft 528kts
09-Sep-21 21:33 44.499665 -122.784901 3 33963ft 541kts
09-Sep-21 21:34 44.642849 -122.763072 2 33959ft 536kts
09-Sep-21 21:35 44.791802 -122.740349 2 33954ft 540kts
09-Sep-21 21:36 44.940967 -122.717428 2 33957ft 539kts
09-Sep-21 21:37 45.089943 -122.694448 2 33964ft 539kts
09-Sep-21 21:38 45.238710 -122.671399 2 33970ft 538kts
09-Sep-21 21:39 45.387124 -122.648240 2 33970ft 534kts
09-Sep-21 21:40 45.532872 -122.625324 2 33863ft 510kts
09-Sep-21 21:41 45.670642 -122.603672 2 32778ft 491kts
09-Sep-21 21:42 45.806024 -122.604015 346 30440ft 491kts
09-Sep-21 21:43 45.941380 -122.635356 345 27667ft 500kts
09-Sep-21 21:44 46.078700 -122.666850 346 24913ft 502kts
09-Sep-21 21:45 46.215998 -122.698132 346 22158ft 495kts
09-Sep-21 21:46 46.349674 -122.723363 353 20012ft 479kts
09-Sep-21 21:47 46.480936 -122.728046 354 17817ft 464kts
09-Sep-21 21:48 46.607061 -122.732500 354 15750ft 448kts
09-Sep-21 21:49 46.727893 -122.736853 355 14674ft 417kts
09-Sep-21 21:50 46.830972 -122.688211 41 13681ft 396kts
09-Sep-21 21:51 46.913240 -122.589369 37 12110ft 367kts
09-Sep-21 21:52 46.997220 -122.535185 12 12004ft 322kts
09-Sep-21 21:53 47.083171 -122.500260 7 11982ft 320kts
09-Sep-21 21:54 47.171338 -122.483591 4 10762ft 317kts
09-Sep-21 21:55 47.256886 -122.469938 4 9783ft 301kts
09-Sep-21 21:56 47.336139 -122.457866 4 9082ft 274kts
09-Sep-21 21:57 47.412048 -122.455323 358 8365ft 271kts
09-Sep-21 21:58 47.487278 -122.455395 358 7657ft 269kts
09-Sep-21 21:59 47.561947 -122.455870 358 6425ft 271kts
09-Sep-21 22:00 47.633469 -122.456728 358 4803ft 250kts
09-Sep-21 22:01 47.693150 -122.435874 65 3530ft 215kts
09-Sep-21 22:02 47.693645 -122.355187 95 2967ft 192kts
09-Sep-21 22:03 47.661177 -122.305523 177 2969ft 190kts
09-Sep-21 22:04 47.608355 -122.306517 181 2960ft 190kts
09-Sep-21 22:05 47.555758 -122.306975 180 2222ft 187kts
09-Sep-21 22:06 47.509802 -122.307364 182 1347ft 155kts
09-Sep-21 22:07 47.468463 -122.307726 181 574ft 145kts
09-Sep-21 22:08 47.446000 -122.307479 121 394ft 10kts
09-Sep-21 22:09 47.444520 -122.306168 138 391ft 10kts
09-Sep-21 22:10 47.444144 -122.304296 127 389ft 0kts
09-Sep-21 22:11 47.444144 -122.304296 127 389ft 0kts
09-Sep-21 22:12 47.444144 -122.304296 127 389ft 0kts
09-Sep-21 22:13 47.444144 -122.304296 127 389ft 0kts
09-Sep-21 22:14 47.444144 -122.304296 127 389ft 0kts
09-Sep-21 22:15 47.444144 -122.304296 127 389ft 0kts
09-Sep-21 22:16 47.444144 -122.304296 127 389ft 0kts
09-Sep-21 22:17 47.444144 -122.304296 127 389ft 0kts
09-Sep-21 22:18 47.444144 -122.304296 127 389ft 0kts
09-Sep-21 22:19 47.444144 -122.304296 127 389ft 0kts
09-Sep-21 22:20 47.444144 -122.304296 127 389ft 0kts
09-Sep-21 22:21 47.444144 -122.304296 127 389ft 0kts

Navigation Log

Ident Type
Flight plan parsing failed, navigation log unavailable